sensor_id;sensor_type;location;lat;lon;timestamp;P1;durP1;ratioP1;P2;durP2;ratioP2
44728;SDS011;30457;53.590;9.922;2023-02-28T00:00:53;3.50;;;1.10;;
44728;SDS011;30457;53.590;9.922;2023-02-28T00:05:19;2.20;;;1.15;;
44728;SDS011;30457;53.590;9.922;2023-02-28T00:09:47;2.15;;;0.75;;
44728;SDS011;30457;53.590;9.922;2023-02-28T00:14:12;2.40;;;1.17;;
44728;SDS011;30457;53.590;9.922;2023-02-28T00:18:38;1.65;;;1.10;;
44728;SDS011;30457;53.590;9.922;2023-02-28T00:23:04;1.52;;;0.98;;
44728;SDS011;30457;53.590;9.922;2023-02-28T00:27:30;3.90;;;1.52;;
44728;SDS011;30457;53.590;9.922;2023-02-28T00:31:55;5.35;;;1.25;;
44728;SDS011;30457;53.590;9.922;2023-02-28T00:36:21;1.27;;;1.00;;
44728;SDS011;30457;53.590;9.922;2023-02-28T00:40:47;1.67;;;1.00;;
44728;SDS011;30457;53.590;9.922;2023-02-28T00:45:12;2.03;;;1.17;;
44728;SDS011;30457;53.590;9.922;2023-02-28T00:49:38;2.17;;;1.33;;
44728;SDS011;30457;53.590;9.922;2023-02-28T00:54:03;2.33;;;1.00;;
44728;SDS011;30457;53.590;9.922;2023-02-28T00:58:29;2.33;;;1.23;;
44728;SDS011;30457;53.590;9.922;2023-02-28T01:02:56;4.05;;;1.27;;
44728;SDS011;30457;53.590;9.922;2023-02-28T01:07:21;2.42;;;1.27;;
44728;SDS011;30457;53.590;9.922;2023-02-28T01:11:47;3.20;;;1.30;;
44728;SDS011;30457;53.590;9.922;2023-02-28T01:16:13;5.72;;;1.30;;
44728;SDS011;30457;53.590;9.922;2023-02-28T01:20:38;3.95;;;1.27;;
44728;SDS011;30457;53.590;9.922;2023-02-28T01:25:04;2.30;;;0.98;;
44728;SDS011;30457;53.590;9.922;2023-02-28T01:29:30;2.10;;;1.00;;
44728;SDS011;30457;53.590;9.922;2023-02-28T01:33:56;2.40;;;1.42;;
44728;SDS011;30457;53.590;9.922;2023-02-28T01:38:21;1.15;;;0.90;;
44728;SDS011;30457;53.590;9.922;2023-02-28T01:42:47;1.70;;;1.15;;
44728;SDS011;30457;53.590;9.922;2023-02-28T01:47:12;4.03;;;1.42;;
44728;SDS011;30457;53.590;9.922;2023-02-28T01:51:45;1.83;;;1.30;;
44728;SDS011;30457;53.590;9.922;2023-02-28T01:56:17;2.72;;;1.30;;
44728;SDS011;30457;53.590;9.922;2023-02-28T02:00:48;3.10;;;1.23;;
44728;SDS011;30457;53.590;9.922;2023-02-28T02:05:15;2.03;;;1.17;;
44728;SDS011;30457;53.590;9.922;2023-02-28T02:09:49;3.97;;;1.80;;
44728;SDS011;30457;53.590;9.922;2023-02-28T02:18:53;6.55;;;1.27;;
44728;SDS011;30457;53.590;9.922;2023-02-28T02:23:47;2.15;;;1.10;;
44728;SDS011;30457;53.590;9.922;2023-02-28T02:28:37;4.75;;;1.33;;
44728;SDS011;30457;53.590;9.922;2023-02-28T02:42:37;4.70;;;2.05;;
44728;SDS011;30457;53.590;9.922;2023-02-28T02:47:15;6.53;;;1.85;;
44728;SDS011;30457;53.590;9.922;2023-02-28T02:51:43;5.25;;;1.80;;
44728;SDS011;30457;53.590;9.922;2023-02-28T02:56:10;5.00;;;1.88;;
44728;SDS011;30457;53.590;9.922;2023-02-28T03:00:41;5.55;;;2.10;;
44728;SDS011;30457;53.590;9.922;2023-02-28T03:05:59;7.32;;;2.67;;
44728;SDS011;30457;53.590;9.922;2023-02-28T03:15:07;8.52;;;2.88;;
44728;SDS011;30457;53.590;9.922;2023-02-28T03:19:55;11.30;;;4.07;;
44728;SDS011;30457;53.590;9.922;2023-02-28T03:29:34;12.55;;;4.90;;
44728;SDS011;30457;53.590;9.922;2023-02-28T03:34:06;13.35;;;5.57;;
44728;SDS011;30457;53.590;9.922;2023-02-28T03:43:09;22.15;;;6.88;;
44728;SDS011;30457;53.590;9.922;2023-02-28T03:47:49;16.67;;;7.07;;
44728;SDS011;30457;53.590;9.922;2023-02-28T03:52:22;23.90;;;8.05;;
44728;SDS011;30457;53.590;9.922;2023-02-28T03:56:56;27.20;;;9.32;;
44728;SDS011;30457;53.590;9.922;2023-02-28T04:01:46;21.30;;;8.55;;
44728;SDS011;30457;53.590;9.922;2023-02-28T04:06:17;21.98;;;8.30;;
44728;SDS011;30457;53.590;9.922;2023-02-28T04:10:45;23.80;;;8.93;;
44728;SDS011;30457;53.590;9.922;2023-02-28T04:15:16;22.48;;;9.20;;
44728;SDS011;30457;53.590;9.922;2023-02-28T04:19:42;21.15;;;7.93;;
44728;SDS011;30457;53.590;9.922;2023-02-28T04:24:09;24.92;;;8.40;;
44728;SDS011;30457;53.590;9.922;2023-02-28T04:28:39;26.25;;;8.43;;
44728;SDS011;30457;53.590;9.922;2023-02-28T04:33:04;24.88;;;8.88;;
44728;SDS011;30457;53.590;9.922;2023-02-28T04:37:30;21.15;;;9.13;;
44728;SDS011;30457;53.590;9.922;2023-02-28T04:41:59;27.17;;;9.88;;
44728;SDS011;30457;53.590;9.922;2023-02-28T04:46:25;26.85;;;9.70;;
44728;SDS011;30457;53.590;9.922;2023-02-28T04:50:51;29.02;;;10.35;;
44728;SDS011;30457;53.590;9.922;2023-02-28T04:55:17;28.20;;;10.43;;
44728;SDS011;30457;53.590;9.922;2023-02-28T04:59:42;31.73;;;11.70;;
44728;SDS011;30457;53.590;9.922;2023-02-28T05:04:08;34.70;;;11.82;;
44728;SDS011;30457;53.590;9.922;2023-02-28T05:08:34;28.25;;;10.18;;
44728;SDS011;30457;53.590;9.922;2023-02-28T05:13:00;22.17;;;9.25;;
44728;SDS011;30457;53.590;9.922;2023-02-28T05:17:25;26.05;;;10.15;;
44728;SDS011;30457;53.590;9.922;2023-02-28T05:21:52;25.90;;;9.65;;
44728;SDS011;30457;53.590;9.922;2023-02-28T05:26:19;19.70;;;8.55;;
44728;SDS011;30457;53.590;9.922;2023-02-28T05:30:45;22.65;;;9.07;;
44728;SDS011;30457;53.590;9.922;2023-02-28T05:35:11;20.48;;;7.63;;
44728;SDS011;30457;53.590;9.922;2023-02-28T05:39:37;14.98;;;6.20;;
44728;SDS011;30457;53.590;9.922;2023-02-28T05:44:03;15.02;;;5.60;;
44728;SDS011;30457;53.590;9.922;2023-02-28T05:48:29;23.27;;;8.55;;
44728;SDS011;30457;53.590;9.922;2023-02-28T05:52:54;20.23;;;6.22;;
44728;SDS011;30457;53.590;9.922;2023-02-28T05:57:20;11.25;;;5.35;;
44728;SDS011;30457;53.590;9.922;2023-02-28T06:01:46;14.73;;;5.40;;
44728;SDS011;30457;53.590;9.922;2023-02-28T06:06:15;8.85;;;5.10;;
44728;SDS011;30457;53.590;9.922;2023-02-28T06:10:41;9.02;;;4.00;;
44728;SDS011;30457;53.590;9.922;2023-02-28T06:15:07;12.20;;;4.22;;
44728;SDS011;30457;53.590;9.922;2023-02-28T06:19:42;8.02;;;4.13;;
44728;SDS011;30457;53.590;9.922;2023-02-28T06:24:07;10.02;;;4.15;;
44728;SDS011;30457;53.590;9.922;2023-02-28T06:28:33;8.52;;;4.07;;
44728;SDS011;30457;53.590;9.922;2023-02-28T06:32:59;9.63;;;4.63;;
44728;SDS011;30457;53.590;9.922;2023-02-28T06:37:24;4.45;;;3.03;;
44728;SDS011;30457;53.590;9.922;2023-02-28T06:41:51;10.50;;;4.28;;
44728;SDS011;30457;53.590;9.922;2023-02-28T06:46:17;8.10;;;4.10;;
44728;SDS011;30457;53.590;9.922;2023-02-28T06:50:43;7.45;;;3.92;;
44728;SDS011;30457;53.590;9.922;2023-02-28T06:55:09;7.97;;;4.18;;
44728;SDS011;30457;53.590;9.922;2023-02-28T06:59:35;8.73;;;4.15;;
44728;SDS011;30457;53.590;9.922;2023-02-28T07:04:02;6.72;;;4.53;;
44728;SDS011;30457;53.590;9.922;2023-02-28T07:08:30;9.05;;;4.03;;
44728;SDS011;30457;53.590;9.922;2023-02-28T07:12:56;9.23;;;3.95;;
44728;SDS011;30457;53.590;9.922;2023-02-28T07:17:22;9.63;;;4.60;;
44728;SDS011;30457;53.590;9.922;2023-02-28T07:21:47;9.25;;;4.40;;
44728;SDS011;30457;53.590;9.922;2023-02-28T07:26:14;11.93;;;4.43;;
44728;SDS011;30457;53.590;9.922;2023-02-28T07:30:42;9.48;;;4.75;;
44728;SDS011;30457;53.590;9.922;2023-02-28T07:35:08;9.40;;;4.68;;
44728;SDS011;30457;53.590;9.922;2023-02-28T07:39:33;11.18;;;5.63;;
44728;SDS011;30457;53.590;9.922;2023-02-28T07:43:59;10.05;;;4.20;;
44728;SDS011;30457;53.590;9.922;2023-02-28T07:48:25;16.27;;;5.93;;
44728;SDS011;30457;53.590;9.922;2023-02-28T07:52:50;9.55;;;4.50;;
44728;SDS011;30457;53.590;9.922;2023-02-28T07:57:16;10.00;;;4.65;;
44728;SDS011;30457;53.590;9.922;2023-02-28T08:01:42;10.27;;;3.97;;
44728;SDS011;30457;53.590;9.922;2023-02-28T08:06:14;9.90;;;2.85;;
44728;SDS011;30457;53.590;9.922;2023-02-28T08:10:42;4.70;;;2.13;;
44728;SDS011;30457;53.590;9.922;2023-02-28T08:15:08;2.28;;;2.05;;
44728;SDS011;30457;53.590;9.922;2023-02-28T08:19:34;7.05;;;2.80;;
44728;SDS011;30457;53.590;9.922;2023-02-28T08:24:00;4.50;;;1.80;;
44728;SDS011;30457;53.590;9.922;2023-02-28T08:28:25;3.25;;;2.47;;
44728;SDS011;30457;53.590;9.922;2023-02-28T08:32:51;3.03;;;1.60;;
44728;SDS011;30457;53.590;9.922;2023-02-28T08:37:16;2.50;;;1.50;;
44728;SDS011;30457;53.590;9.922;2023-02-28T08:41:42;2.47;;;1.45;;
44728;SDS011;30457;53.590;9.922;2023-02-28T08:46:11;1.20;;;1.05;;
44728;SDS011;30457;53.590;9.922;2023-02-28T08:50:38;1.65;;;1.30;;
44728;SDS011;30457;53.590;9.922;2023-02-28T08:55:04;4.28;;;1.50;;
44728;SDS011;30457;53.590;9.922;2023-02-28T08:59:29;1.95;;;0.98;;
44728;SDS011;30457;53.590;9.922;2023-02-28T09:03:55;0.98;;;0.82;;
44728;SDS011;30457;53.590;9.922;2023-02-28T09:08:22;1.00;;;0.73;;
44728;SDS011;30457;53.590;9.922;2023-02-28T09:12:48;0.98;;;0.82;;
44728;SDS011;30457;53.590;9.922;2023-02-28T09:17:14;2.53;;;0.90;;
44728;SDS011;30457;53.590;9.922;2023-02-28T09:21:40;1.45;;;0.80;;
44728;SDS011;30457;53.590;9.922;2023-02-28T09:26:05;5.68;;;0.88;;
44728;SDS011;30457;53.590;9.922;2023-02-28T09:30:31;0.70;;;0.70;;
44728;SDS011;30457;53.590;9.922;2023-02-28T09:34:57;2.22;;;0.63;;
44728;SDS011;30457;53.590;9.922;2023-02-28T09:39:23;1.65;;;0.80;;
44728;SDS011;30457;53.590;9.922;2023-02-28T09:43:52;2.72;;;0.80;;
44728;SDS011;30457;53.590;9.922;2023-02-28T09:48:21;2.20;;;1.00;;
44728;SDS011;30457;53.590;9.922;2023-02-28T09:52:52;1.05;;;0.88;;
44728;SDS011;30457;53.590;9.922;2023-02-28T09:57:32;1.30;;;0.80;;
44728;SDS011;30457;53.590;9.922;2023-02-28T10:02:04;1.10;;;1.00;;
44728;SDS011;30457;53.590;9.922;2023-02-28T10:06:48;2.13;;;0.98;;
44728;SDS011;30457;53.590;9.922;2023-02-28T10:11:16;1.80;;;1.07;;
44728;SDS011;30457;53.590;9.922;2023-02-28T10:15:43;2.13;;;1.30;;
44728;SDS011;30457;53.590;9.922;2023-02-28T10:20:12;1.95;;;1.20;;
44728;SDS011;30457;53.590;9.922;2023-02-28T10:24:45;1.45;;;1.10;;
44728;SDS011;30457;53.590;9.922;2023-02-28T10:29:16;1.25;;;1.10;;
44728;SDS011;30457;53.590;9.922;2023-02-28T10:33:42;2.78;;;1.65;;
44728;SDS011;30457;53.590;9.922;2023-02-28T10:38:11;1.15;;;0.80;;
44728;SDS011;30457;53.590;9.922;2023-02-28T10:42:41;1.08;;;0.60;;
44728;SDS011;30457;53.590;9.922;2023-02-28T10:47:12;1.40;;;1.02;;
44728;SDS011;30457;53.590;9.922;2023-02-28T10:51:41;1.08;;;0.98;;
44728;SDS011;30457;53.590;9.922;2023-02-28T11:00:35;1.35;;;1.00;;
44728;SDS011;30457;53.590;9.922;2023-02-28T11:05:01;1.55;;;1.08;;
44728;SDS011;30457;53.590;9.922;2023-02-28T11:09:28;1.10;;;0.80;;
44728;SDS011;30457;53.590;9.922;2023-02-28T11:14:05;2.85;;;0.93;;
44728;SDS011;30457;53.590;9.922;2023-02-28T11:23:04;0.82;;;0.80;;
44728;SDS011;30457;53.590;9.922;2023-02-28T11:32:21;1.60;;;0.90;;
44728;SDS011;30457;53.590;9.922;2023-02-28T11:36:48;1.50;;;1.10;;
44728;SDS011;30457;53.590;9.922;2023-02-28T11:41:45;3.35;;;0.88;;
44728;SDS011;30457;53.590;9.922;2023-02-28T11:56:25;3.23;;;1.20;;
44728;SDS011;30457;53.590;9.922;2023-02-28T12:01:20;1.45;;;0.95;;
44728;SDS011;30457;53.590;9.922;2023-02-28T12:29:29;2.13;;;1.10;;
44728;SDS011;30457;53.590;9.922;2023-02-28T12:34:01;8.32;;;1.10;;
44728;SDS011;30457;53.590;9.922;2023-02-28T12:38:34;2.00;;;1.02;;
44728;SDS011;30457;53.590;9.922;2023-02-28T12:43:05;3.53;;;1.42;;
44728;SDS011;30457;53.590;9.922;2023-02-28T12:47:33;4.05;;;1.05;;
44728;SDS011;30457;53.590;9.922;2023-02-28T12:52:00;1.70;;;1.33;;
44728;SDS011;30457;53.590;9.922;2023-02-28T12:56:30;1.42;;;1.08;;
44728;SDS011;30457;53.590;9.922;2023-02-28T13:01:14;5.45;;;2.15;;
44728;SDS011;30457;53.590;9.922;2023-02-28T13:10:48;1.85;;;1.10;;
44728;SDS011;30457;53.590;9.922;2023-02-28T13:15:20;2.22;;;1.33;;
44728;SDS011;30457;53.590;9.922;2023-02-28T13:33:36;2.97;;;1.20;;
44728;SDS011;30457;53.590;9.922;2023-02-28T13:38:23;4.00;;;1.20;;
44728;SDS011;30457;53.590;9.922;2023-02-28T13:42:56;2.40;;;1.30;;
44728;SDS011;30457;53.590;9.922;2023-02-28T13:47:23;2.90;;;1.30;;
44728;SDS011;30457;53.590;9.922;2023-02-28T13:51:53;2.42;;;1.13;;
44728;SDS011;30457;53.590;9.922;2023-02-28T13:56:26;2.00;;;1.30;;
44728;SDS011;30457;53.590;9.922;2023-02-28T14:06:08;2.08;;;1.55;;
44728;SDS011;30457;53.590;9.922;2023-02-28T14:10:47;4.20;;;1.45;;
44728;SDS011;30457;53.590;9.922;2023-02-28T14:15:34;7.53;;;1.40;;
44728;SDS011;30457;53.590;9.922;2023-02-28T14:20:01;2.22;;;1.27;;
44728;SDS011;30457;53.590;9.922;2023-02-28T14:38:45;3.53;;;1.40;;
44728;SDS011;30457;53.590;9.922;2023-02-28T14:43:22;3.80;;;1.50;;
44728;SDS011;30457;53.590;9.922;2023-02-28T14:47:50;2.70;;;1.42;;
44728;SDS011;30457;53.590;9.922;2023-02-28T14:52:19;1.85;;;1.40;;
44728;SDS011;30457;53.590;9.922;2023-02-28T14:56:48;3.95;;;2.00;;
44728;SDS011;30457;53.590;9.922;2023-02-28T15:01:14;3.05;;;1.63;;
44728;SDS011;30457;53.590;9.922;2023-02-28T15:05:54;5.35;;;1.58;;
44728;SDS011;30457;53.590;9.922;2023-02-28T15:10:25;2.73;;;1.93;;
44728;SDS011;30457;53.590;9.922;2023-02-28T15:14:52;6.65;;;1.77;;
44728;SDS011;30457;53.590;9.922;2023-02-28T15:24:00;2.47;;;1.60;;
44728;SDS011;30457;53.590;9.922;2023-02-28T15:28:29;1.77;;;1.10;;
44728;SDS011;30457;53.590;9.922;2023-02-28T15:33:29;3.85;;;1.60;;
44728;SDS011;30457;53.590;9.922;2023-02-28T15:42:40;4.38;;;1.88;;
44728;SDS011;30457;53.590;9.922;2023-02-28T15:56:19;5.87;;;1.53;;
44728;SDS011;30457;53.590;9.922;2023-02-28T16:01:00;6.38;;;1.63;;
44728;SDS011;30457;53.590;9.922;2023-02-28T16:05:30;31.90;;;4.22;;
44728;SDS011;30457;53.590;9.922;2023-02-28T16:09:56;3.67;;;1.90;;
44728;SDS011;30457;53.590;9.922;2023-02-28T16:14:23;2.60;;;1.52;;
44728;SDS011;30457;53.590;9.922;2023-02-28T16:18:52;3.00;;;1.85;;
44728;SDS011;30457;53.590;9.922;2023-02-28T16:23:18;2.92;;;1.85;;
44728;SDS011;30457;53.590;9.922;2023-02-28T16:27:45;2.65;;;1.42;;
44728;SDS011;30457;53.590;9.922;2023-02-28T16:32:14;1.75;;;1.55;;
44728;SDS011;30457;53.590;9.922;2023-02-28T16:36:40;2.67;;;1.90;;
44728;SDS011;30457;53.590;9.922;2023-02-28T16:41:06;4.00;;;1.73;;
44728;SDS011;30457;53.590;9.922;2023-02-28T16:45:35;3.80;;;1.65;;
44728;SDS011;30457;53.590;9.922;2023-02-28T16:50:00;4.18;;;1.52;;
44728;SDS011;30457;53.590;9.922;2023-02-28T16:54:26;5.05;;;1.60;;
44728;SDS011;30457;53.590;9.922;2023-02-28T16:58:52;5.80;;;1.50;;
44728;SDS011;30457;53.590;9.922;2023-02-28T17:03:23;2.97;;;1.63;;
44728;SDS011;30457;53.590;9.922;2023-02-28T17:07:51;1.55;;;1.20;;
44728;SDS011;30457;53.590;9.922;2023-02-28T17:12:17;1.67;;;1.40;;
44728;SDS011;30457;53.590;9.922;2023-02-28T17:16:42;12.38;;;1.90;;
44728;SDS011;30457;53.590;9.922;2023-02-28T17:21:15;2.35;;;1.40;;
44728;SDS011;30457;53.590;9.922;2023-02-28T17:25:41;3.50;;;1.55;;
44728;SDS011;30457;53.590;9.922;2023-02-28T17:30:19;4.00;;;1.73;;
44728;SDS011;30457;53.590;9.922;2023-02-28T17:34:47;2.22;;;1.33;;
44728;SDS011;30457;53.590;9.922;2023-02-28T17:39:13;3.38;;;1.33;;
44728;SDS011;30457;53.590;9.922;2023-02-28T17:43:40;1.75;;;1.30;;
44728;SDS011;30457;53.590;9.922;2023-02-28T17:48:05;4.32;;;1.65;;
44728;SDS011;30457;53.590;9.922;2023-02-28T17:52:31;4.47;;;2.08;;
44728;SDS011;30457;53.590;9.922;2023-02-28T17:57:01;2.90;;;1.92;;
44728;SDS011;30457;53.590;9.922;2023-02-28T18:01:27;2.92;;;1.70;;
44728;SDS011;30457;53.590;9.922;2023-02-28T18:05:53;3.33;;;1.42;;
44728;SDS011;30457;53.590;9.922;2023-02-28T18:10:20;4.95;;;2.22;;
44728;SDS011;30457;53.590;9.922;2023-02-28T18:14:46;3.15;;;1.55;;
44728;SDS011;30457;53.590;9.922;2023-02-28T18:19:12;8.80;;;2.15;;
44728;SDS011;30457;53.590;9.922;2023-02-28T18:23:41;16.42;;;2.72;;
44728;SDS011;30457;53.590;9.922;2023-02-28T18:28:14;3.97;;;1.85;;
44728;SDS011;30457;53.590;9.922;2023-02-28T18:32:39;6.30;;;2.50;;
44728;SDS011;30457;53.590;9.922;2023-02-28T18:37:05;6.97;;;2.60;;
44728;SDS011;30457;53.590;9.922;2023-02-28T18:41:31;4.00;;;2.47;;
44728;SDS011;30457;53.590;9.922;2023-02-28T18:45:57;5.28;;;2.90;;
44728;SDS011;30457;53.590;9.922;2023-02-28T18:50:22;23.88;;;2.88;;
44728;SDS011;30457;53.590;9.922;2023-02-28T18:54:48;10.82;;;2.45;;
44728;SDS011;30457;53.590;9.922;2023-02-28T18:59:13;5.25;;;2.65;;
44728;SDS011;30457;53.590;9.922;2023-02-28T19:03:39;9.57;;;3.83;;
44728;SDS011;30457;53.590;9.922;2023-02-28T19:08:04;10.50;;;3.45;;
44728;SDS011;30457;53.590;9.922;2023-02-28T19:12:34;7.50;;;3.85;;
44728;SDS011;30457;53.590;9.922;2023-02-28T19:17:03;7.80;;;3.97;;
44728;SDS011;30457;53.590;9.922;2023-02-28T19:21:29;7.43;;;4.22;;
44728;SDS011;30457;53.590;9.922;2023-02-28T19:25:54;15.80;;;4.45;;
44728;SDS011;30457;53.590;9.922;2023-02-28T19:30:20;7.45;;;4.35;;
44728;SDS011;30457;53.590;9.922;2023-02-28T19:34:47;5.85;;;3.30;;
44728;SDS011;30457;53.590;9.922;2023-02-28T19:39:12;11.15;;;5.20;;
44728;SDS011;30457;53.590;9.922;2023-02-28T19:43:38;12.18;;;5.50;;
44728;SDS011;30457;53.590;9.922;2023-02-28T19:48:04;10.80;;;5.38;;
44728;SDS011;30457;53.590;9.922;2023-02-28T19:52:29;17.88;;;5.53;;
44728;SDS011;30457;53.590;9.922;2023-02-28T19:56:55;19.40;;;5.30;;
44728;SDS011;30457;53.590;9.922;2023-02-28T20:01:21;10.68;;;5.05;;
44728;SDS011;30457;53.590;9.922;2023-02-28T20:05:47;8.85;;;3.53;;
44728;SDS011;30457;53.590;9.922;2023-02-28T20:10:24;9.25;;;4.25;;
44728;SDS011;30457;53.590;9.922;2023-02-28T20:14:49;8.52;;;3.78;;
44728;SDS011;30457;53.590;9.922;2023-02-28T20:19:16;12.10;;;3.42;;
44728;SDS011;30457;53.590;9.922;2023-02-28T20:23:42;6.90;;;3.65;;
44728;SDS011;30457;53.590;9.922;2023-02-28T20:28:09;7.10;;;3.88;;
44728;SDS011;30457;53.590;9.922;2023-02-28T20:32:35;6.43;;;3.20;;
44728;SDS011;30457;53.590;9.922;2023-02-28T20:37:03;6.45;;;2.88;;
44728;SDS011;30457;53.590;9.922;2023-02-28T20:41:29;7.07;;;3.63;;
44728;SDS011;30457;53.590;9.922;2023-02-28T20:45:55;4.55;;;2.72;;
44728;SDS011;30457;53.590;9.922;2023-02-28T20:50:22;5.25;;;3.53;;
44728;SDS011;30457;53.590;9.922;2023-02-28T20:54:48;6.97;;;3.80;;
44728;SDS011;30457;53.590;9.922;2023-02-28T20:59:13;7.13;;;4.20;;
44728;SDS011;30457;53.590;9.922;2023-02-28T21:03:39;12.48;;;4.15;;
44728;SDS011;30457;53.590;9.922;2023-02-28T21:08:05;10.20;;;4.20;;
44728;SDS011;30457;53.590;9.922;2023-02-28T21:12:30;11.43;;;4.65;;
44728;SDS011;30457;53.590;9.922;2023-02-28T21:16:56;12.82;;;4.45;;
44728;SDS011;30457;53.590;9.922;2023-02-28T21:21:22;7.35;;;3.70;;
44728;SDS011;30457;53.590;9.922;2023-02-28T21:25:48;7.68;;;4.60;;
44728;SDS011;30457;53.590;9.922;2023-02-28T21:30:14;7.05;;;3.40;;
44728;SDS011;30457;53.590;9.922;2023-02-28T21:34:40;7.63;;;3.45;;
44728;SDS011;30457;53.590;9.922;2023-02-28T21:39:11;10.73;;;5.10;;
44728;SDS011;30457;53.590;9.922;2023-02-28T21:43:43;8.95;;;3.60;;
44728;SDS011;30457;53.590;9.922;2023-02-28T21:48:09;8.90;;;3.67;;
44728;SDS011;30457;53.590;9.922;2023-02-28T21:52:34;7.38;;;3.53;;
44728;SDS011;30457;53.590;9.922;2023-02-28T21:57:00;6.15;;;3.22;;
44728;SDS011;30457;53.590;9.922;2023-02-28T22:01:27;7.65;;;3.20;;
44728;SDS011;30457;53.590;9.922;2023-02-28T22:05:55;8.32;;;2.75;;
44728;SDS011;30457;53.590;9.922;2023-02-28T22:10:20;9.13;;;3.50;;
44728;SDS011;30457;53.590;9.922;2023-02-28T22:14:46;5.35;;;3.03;;
44728;SDS011;30457;53.590;9.922;2023-02-28T22:19:12;6.50;;;3.30;;
44728;SDS011;30457;53.590;9.922;2023-02-28T22:23:38;11.32;;;3.17;;
44728;SDS011;30457;53.590;9.922;2023-02-28T22:28:04;3.78;;;2.40;;
44728;SDS011;30457;53.590;9.922;2023-02-28T22:32:29;6.28;;;3.22;;
44728;SDS011;30457;53.590;9.922;2023-02-28T22:36:55;10.40;;;3.25;;
44728;SDS011;30457;53.590;9.922;2023-02-28T22:41:22;6.72;;;3.17;;
44728;SDS011;30457;53.590;9.922;2023-02-28T22:45:48;4.90;;;2.83;;
44728;SDS011;30457;53.590;9.922;2023-02-28T22:50:13;3.95;;;2.67;;
44728;SDS011;30457;53.590;9.922;2023-02-28T22:54:39;12.27;;;3.20;;
44728;SDS011;30457;53.590;9.922;2023-02-28T22:59:05;5.57;;;3.75;;
44728;SDS011;30457;53.590;9.922;2023-02-28T23:03:30;8.73;;;3.65;;
44728;SDS011;30457;53.590;9.922;2023-02-28T23:07:56;3.88;;;2.67;;
44728;SDS011;30457;53.590;9.922;2023-02-28T23:12:21;4.70;;;3.20;;
44728;SDS011;30457;53.590;9.922;2023-02-28T23:16:51;4.75;;;2.90;;
44728;SDS011;30457;53.590;9.922;2023-02-28T23:21:18;4.53;;;2.67;;
44728;SDS011;30457;53.590;9.922;2023-02-28T23:25:43;9.23;;;3.40;;
44728;SDS011;30457;53.590;9.922;2023-02-28T23:30:09;4.00;;;2.95;;
44728;SDS011;30457;53.590;9.922;2023-02-28T23:34:35;3.80;;;2.42;;
44728;SDS011;30457;53.590;9.922;2023-02-28T23:39:01;4.57;;;2.50;;
44728;SDS011;30457;53.590;9.922;2023-02-28T23:43:27;3.85;;;2.65;;
44728;SDS011;30457;53.590;9.922;2023-02-28T23:47:53;5.65;;;2.85;;
44728;SDS011;30457;53.590;9.922;2023-02-28T23:52:18;5.95;;;3.20;;
44728;SDS011;30457;53.590;9.922;2023-02-28T23:56:44;6.35;;;2.70;;
